sensor_id;sensor_type;location;lat;lon;timestamp;P1;durP1;ratioP1;P2;durP2;ratioP2
44000;SDS011;29660;42.892;24.710;2023-11-19T00:01:44;2.50;;;2.22;;
44000;SDS011;29660;42.892;24.710;2023-11-19T00:07:06;3.42;;;2.30;;
44000;SDS011;29660;42.892;24.710;2023-11-19T00:12:29;3.97;;;1.80;;
44000;SDS011;29660;42.892;24.710;2023-11-19T00:17:51;2.90;;;2.30;;
44000;SDS011;29660;42.892;24.710;2023-11-19T00:23:13;3.28;;;2.80;;
44000;SDS011;29660;42.892;24.710;2023-11-19T00:28:36;4.63;;;2.55;;
44000;SDS011;29660;42.892;24.710;2023-11-19T00:34:00;3.00;;;2.35;;
44000;SDS011;29660;42.892;24.710;2023-11-19T00:39:23;9.55;;;5.03;;
44000;SDS011;29660;42.892;24.710;2023-11-19T00:44:46;3.45;;;2.72;;
44000;SDS011;29660;42.892;24.710;2023-11-19T00:50:11;11.95;;;5.95;;
44000;SDS011;29660;42.892;24.710;2023-11-19T00:55:34;3.53;;;2.80;;
44000;SDS011;29660;42.892;24.710;2023-11-19T01:01:07;3.22;;;2.70;;
44000;SDS011;29660;42.892;24.710;2023-11-19T01:06:29;3.53;;;2.80;;
44000;SDS011;29660;42.892;24.710;2023-11-19T01:11:53;3.15;;;2.72;;
44000;SDS011;29660;42.892;24.710;2023-11-19T01:17:15;8.52;;;4.50;;
44000;SDS011;29660;42.892;24.710;2023-11-19T01:22:39;13.43;;;7.07;;
44000;SDS011;29660;42.892;24.710;2023-11-19T01:28:02;11.68;;;6.50;;
44000;SDS011;29660;42.892;24.710;2023-11-19T01:33:24;3.33;;;2.70;;
44000;SDS011;29660;42.892;24.710;2023-11-19T01:38:46;5.40;;;4.05;;
44000;SDS011;29660;42.892;24.710;2023-11-19T01:44:09;3.03;;;2.60;;
44000;SDS011;29660;42.892;24.710;2023-11-19T01:49:32;4.75;;;3.40;;
44000;SDS011;29660;42.892;24.710;2023-11-19T01:54:54;3.30;;;2.30;;
44000;SDS011;29660;42.892;24.710;2023-11-19T02:00:17;7.13;;;4.35;;
44000;SDS011;29660;42.892;24.710;2023-11-19T02:05:41;4.00;;;3.10;;
44000;SDS011;29660;42.892;24.710;2023-11-19T02:11:03;5.03;;;3.60;;
44000;SDS011;29660;42.892;24.710;2023-11-19T02:16:25;5.60;;;3.00;;
44000;SDS011;29660;42.892;24.710;2023-11-19T02:21:47;5.32;;;4.65;;
44000;SDS011;29660;42.892;24.710;2023-11-19T02:27:19;4.25;;;3.58;;
44000;SDS011;29660;42.892;24.710;2023-11-19T02:32:52;3.50;;;3.10;;
44000;SDS011;29660;42.892;24.710;2023-11-19T02:38:15;4.03;;;3.60;;
44000;SDS011;29660;42.892;24.710;2023-11-19T02:43:37;10.93;;;6.35;;
44000;SDS011;29660;42.892;24.710;2023-11-19T02:49:00;5.65;;;3.92;;
44000;SDS011;29660;42.892;24.710;2023-11-19T02:54:22;4.20;;;3.75;;
44000;SDS011;29660;42.892;24.710;2023-11-19T02:59:48;4.15;;;3.75;;
44000;SDS011;29660;42.892;24.710;2023-11-19T03:05:14;4.65;;;3.25;;
44000;SDS011;29660;42.892;24.710;2023-11-19T03:10:36;3.97;;;3.13;;
44000;SDS011;29660;42.892;24.710;2023-11-19T03:15:58;2.92;;;2.63;;
44000;SDS011;29660;42.892;24.710;2023-11-19T03:21:28;4.72;;;3.40;;
44000;SDS011;29660;42.892;24.710;2023-11-19T03:26:51;3.95;;;3.42;;
44000;SDS011;29660;42.892;24.710;2023-11-19T03:32:13;3.92;;;3.58;;
44000;SDS011;29660;42.892;24.710;2023-11-19T03:37:36;3.85;;;3.17;;
44000;SDS011;29660;42.892;24.710;2023-11-19T03:42:59;4.88;;;4.07;;
44000;SDS011;29660;42.892;24.710;2023-11-19T03:48:21;4.90;;;3.63;;
44000;SDS011;29660;42.892;24.710;2023-11-19T03:53:44;3.22;;;2.60;;
44000;SDS011;29660;42.892;24.710;2023-11-19T03:59:07;3.92;;;3.30;;
44000;SDS011;29660;42.892;24.710;2023-11-19T04:04:31;3.45;;;3.15;;
44000;SDS011;29660;42.892;24.710;2023-11-19T04:09:54;3.10;;;2.47;;
44000;SDS011;29660;42.892;24.710;2023-11-19T04:15:16;4.47;;;3.05;;
44000;SDS011;29660;42.892;24.710;2023-11-19T04:20:39;4.22;;;3.10;;
44000;SDS011;29660;42.892;24.710;2023-11-19T04:26:04;3.00;;;2.30;;
44000;SDS011;29660;42.892;24.710;2023-11-19T04:31:29;3.07;;;2.30;;
44000;SDS011;29660;42.892;24.710;2023-11-19T04:36:54;3.10;;;2.55;;
44000;SDS011;29660;42.892;24.710;2023-11-19T04:42:16;3.53;;;2.88;;
44000;SDS011;29660;42.892;24.710;2023-11-19T04:47:39;3.75;;;2.97;;
44000;SDS011;29660;42.892;24.710;2023-11-19T04:53:01;4.13;;;3.33;;
44000;SDS011;29660;42.892;24.710;2023-11-19T04:58:24;5.10;;;3.83;;
44000;SDS011;29660;42.892;24.710;2023-11-19T05:03:46;4.65;;;3.38;;
44000;SDS011;29660;42.892;24.710;2023-11-19T05:09:09;5.90;;;4.53;;
44000;SDS011;29660;42.892;24.710;2023-11-19T05:14:31;4.18;;;3.67;;
44000;SDS011;29660;42.892;24.710;2023-11-19T05:19:53;4.45;;;3.30;;
44000;SDS011;29660;42.892;24.710;2023-11-19T05:25:15;22.40;;;13.98;;
44000;SDS011;29660;42.892;24.710;2023-11-19T05:30:37;7.35;;;5.75;;
44000;SDS011;29660;42.892;24.710;2023-11-19T05:36:00;6.53;;;5.38;;
44000;SDS011;29660;42.892;24.710;2023-11-19T05:41:22;3.72;;;3.05;;
44000;SDS011;29660;42.892;24.710;2023-11-19T05:46:44;5.93;;;4.10;;
44000;SDS011;29660;42.892;24.710;2023-11-19T05:52:06;5.82;;;4.28;;
44000;SDS011;29660;42.892;24.710;2023-11-19T05:57:29;3.70;;;3.10;;
44000;SDS011;29660;42.892;24.710;2023-11-19T06:02:52;3.40;;;3.00;;
44000;SDS011;29660;42.892;24.710;2023-11-19T06:08:14;3.55;;;2.83;;
44000;SDS011;29660;42.892;24.710;2023-11-19T06:13:37;4.57;;;3.65;;
44000;SDS011;29660;42.892;24.710;2023-11-19T06:18:59;3.15;;;2.60;;
44000;SDS011;29660;42.892;24.710;2023-11-19T06:24:22;6.53;;;3.45;;
44000;SDS011;29660;42.892;24.710;2023-11-19T06:29:44;6.53;;;4.00;;
44000;SDS011;29660;42.892;24.710;2023-11-19T06:35:06;4.63;;;3.65;;
44000;SDS011;29660;42.892;24.710;2023-11-19T06:40:30;3.95;;;3.40;;
44000;SDS011;29660;42.892;24.710;2023-11-19T06:45:53;3.97;;;3.10;;
44000;SDS011;29660;42.892;24.710;2023-11-19T06:51:16;3.95;;;3.55;;
44000;SDS011;29660;42.892;24.710;2023-11-19T06:56:38;7.50;;;6.13;;
44000;SDS011;29660;42.892;24.710;2023-11-19T07:02:00;10.88;;;8.90;;
44000;SDS011;29660;42.892;24.710;2023-11-19T07:07:22;16.75;;;11.13;;
44000;SDS011;29660;42.892;24.710;2023-11-19T07:12:44;6.45;;;4.45;;
44000;SDS011;29660;42.892;24.710;2023-11-19T07:18:07;6.05;;;5.43;;
44000;SDS011;29660;42.892;24.710;2023-11-19T07:23:29;7.65;;;5.72;;
44000;SDS011;29660;42.892;24.710;2023-11-19T07:28:51;9.70;;;7.65;;
44000;SDS011;29660;42.892;24.710;2023-11-19T07:34:13;26.30;;;21.92;;
44000;SDS011;29660;42.892;24.710;2023-11-19T07:50:50;25.73;;;20.25;;
44000;SDS011;29660;42.892;24.710;2023-11-19T07:56:12;69.13;;;50.85;;
44000;SDS011;29660;42.892;24.710;2023-11-19T08:01:34;10.35;;;7.22;;
44000;SDS011;29660;42.892;24.710;2023-11-19T08:06:56;18.95;;;14.07;;
44000;SDS011;29660;42.892;24.710;2023-11-19T08:12:18;13.45;;;11.55;;
44000;SDS011;29660;42.892;24.710;2023-11-19T08:17:41;65.72;;;54.47;;
44000;SDS011;29660;42.892;24.710;2023-11-19T08:23:04;32.60;;;23.63;;
44000;SDS011;29660;42.892;24.710;2023-11-19T08:28:26;7.55;;;6.13;;
44000;SDS011;29660;42.892;24.710;2023-11-19T08:33:49;4.32;;;3.75;;
44000;SDS011;29660;42.892;24.710;2023-11-19T08:39:11;21.27;;;16.85;;
44000;SDS011;29660;42.892;24.710;2023-11-19T08:44:35;35.63;;;25.67;;
44000;SDS011;29660;42.892;24.710;2023-11-19T08:49:57;6.30;;;5.13;;
44000;SDS011;29660;42.892;24.710;2023-11-19T08:55:22;10.18;;;7.50;;
44000;SDS011;29660;42.892;24.710;2023-11-19T09:00:45;37.00;;;25.40;;
44000;SDS011;29660;42.892;24.710;2023-11-19T09:06:07;6.15;;;5.35;;
44000;SDS011;29660;42.892;24.710;2023-11-19T09:11:29;10.02;;;7.13;;
44000;SDS011;29660;42.892;24.710;2023-11-19T09:16:52;16.25;;;14.20;;
44000;SDS011;29660;42.892;24.710;2023-11-19T09:22:14;7.93;;;6.60;;
44000;SDS011;29660;42.892;24.710;2023-11-19T09:27:36;15.10;;;12.23;;
44000;SDS011;29660;42.892;24.710;2023-11-19T09:32:59;57.70;;;43.60;;
44000;SDS011;29660;42.892;24.710;2023-11-19T09:38:21;8.10;;;6.13;;
44000;SDS011;29660;42.892;24.710;2023-11-19T09:43:44;11.60;;;9.60;;
44000;SDS011;29660;42.892;24.710;2023-11-19T09:49:07;19.25;;;16.73;;
44000;SDS011;29660;42.892;24.710;2023-11-19T09:54:32;9.02;;;7.43;;
44000;SDS011;29660;42.892;24.710;2023-11-19T09:59:54;11.90;;;10.80;;
44000;SDS011;29660;42.892;24.710;2023-11-19T10:05:16;6.13;;;5.53;;
44000;SDS011;29660;42.892;24.710;2023-11-19T10:10:42;6.72;;;6.10;;
44000;SDS011;29660;42.892;24.710;2023-11-19T10:16:08;14.85;;;12.45;;
44000;SDS011;29660;42.892;24.710;2023-11-19T10:21:33;10.35;;;9.00;;
44000;SDS011;29660;42.892;24.710;2023-11-19T10:27:01;7.63;;;6.85;;
44000;SDS011;29660;42.892;24.710;2023-11-19T10:32:26;35.75;;;28.33;;
44000;SDS011;29660;42.892;24.710;2023-11-19T10:37:48;5.28;;;4.50;;
44000;SDS011;29660;42.892;24.710;2023-11-19T10:43:11;3.83;;;2.97;;
44000;SDS011;29660;42.892;24.710;2023-11-19T10:48:34;42.22;;;37.95;;
44000;SDS011;29660;42.892;24.710;2023-11-19T10:53:57;12.10;;;5.93;;
44000;SDS011;29660;42.892;24.710;2023-11-19T10:59:30;10.35;;;8.23;;
44000;SDS011;29660;42.892;24.710;2023-11-19T11:04:56;5.50;;;4.97;;
44000;SDS011;29660;42.892;24.710;2023-11-19T11:10:19;8.52;;;6.22;;
44000;SDS011;29660;42.892;24.710;2023-11-19T11:15:44;42.00;;;26.88;;
44000;SDS011;29660;42.892;24.710;2023-11-19T11:21:09;14.18;;;12.18;;
44000;SDS011;29660;42.892;24.710;2023-11-19T11:26:46;6.43;;;5.15;;
44000;SDS011;29660;42.892;24.710;2023-11-19T11:37:44;31.42;;;22.95;;
44000;SDS011;29660;42.892;24.710;2023-11-19T11:49:11;10.20;;;7.07;;
44000;SDS011;29660;42.892;24.710;2023-11-19T11:54:34;3.78;;;3.17;;
44000;SDS011;29660;42.892;24.710;2023-11-19T11:59:57;6.88;;;4.45;;
44000;SDS011;29660;42.892;24.710;2023-11-19T12:05:19;10.38;;;8.70;;
44000;SDS011;29660;42.892;24.710;2023-11-19T12:10:50;11.98;;;8.15;;
44000;SDS011;29660;42.892;24.710;2023-11-19T12:16:13;14.75;;;10.00;;
44000;SDS011;29660;42.892;24.710;2023-11-19T12:21:35;10.77;;;8.43;;
44000;SDS011;29660;42.892;24.710;2023-11-19T12:26:59;15.85;;;12.50;;
44000;SDS011;29660;42.892;24.710;2023-11-19T12:32:21;28.02;;;22.88;;
44000;SDS011;29660;42.892;24.710;2023-11-19T12:37:44;11.00;;;7.78;;
44000;SDS011;29660;42.892;24.710;2023-11-19T12:43:08;15.93;;;10.25;;
44000;SDS011;29660;42.892;24.710;2023-11-19T12:48:30;7.53;;;5.78;;
44000;SDS011;29660;42.892;24.710;2023-11-19T12:53:53;5.57;;;4.63;;
44000;SDS011;29660;42.892;24.710;2023-11-19T12:59:20;49.67;;;30.92;;
44000;SDS011;29660;42.892;24.710;2023-11-19T13:04:42;16.77;;;11.38;;
44000;SDS011;29660;42.892;24.710;2023-11-19T13:10:04;18.35;;;13.18;;
44000;SDS011;29660;42.892;24.710;2023-11-19T13:15:28;10.18;;;6.97;;
44000;SDS011;29660;42.892;24.710;2023-11-19T13:20:50;43.17;;;24.55;;
44000;SDS011;29660;42.892;24.710;2023-11-19T13:26:12;39.05;;;24.02;;
44000;SDS011;29660;42.892;24.710;2023-11-19T13:31:35;11.10;;;9.90;;
44000;SDS011;29660;42.892;24.710;2023-11-19T13:36:57;7.05;;;5.75;;
44000;SDS011;29660;42.892;24.710;2023-11-19T13:42:19;25.23;;;15.50;;
44000;SDS011;29660;42.892;24.710;2023-11-19T13:47:42;18.55;;;12.25;;
44000;SDS011;29660;42.892;24.710;2023-11-19T13:53:06;10.50;;;7.32;;
44000;SDS011;29660;42.892;24.710;2023-11-19T13:58:28;12.02;;;8.27;;
44000;SDS011;29660;42.892;24.710;2023-11-19T14:03:50;62.40;;;43.42;;
44000;SDS011;29660;42.892;24.710;2023-11-19T14:09:12;20.52;;;17.33;;
44000;SDS011;29660;42.892;24.710;2023-11-19T14:14:35;19.38;;;15.23;;
44000;SDS011;29660;42.892;24.710;2023-11-19T14:19:57;27.40;;;14.75;;
44000;SDS011;29660;42.892;24.710;2023-11-19T14:25:19;10.43;;;8.90;;
44000;SDS011;29660;42.892;24.710;2023-11-19T14:30:43;240.88;;;145.52;;
44000;SDS011;29660;42.892;24.710;2023-11-19T14:36:06;7.32;;;5.78;;
44000;SDS011;29660;42.892;24.710;2023-11-19T14:41:29;12.13;;;7.90;;
44000;SDS011;29660;42.892;24.710;2023-11-19T14:46:51;26.08;;;18.85;;
44000;SDS011;29660;42.892;24.710;2023-11-19T14:52:14;25.58;;;19.42;;
44000;SDS011;29660;42.892;24.710;2023-11-19T14:57:38;83.50;;;64.38;;
44000;SDS011;29660;42.892;24.710;2023-11-19T15:03:01;58.58;;;43.03;;
44000;SDS011;29660;42.892;24.710;2023-11-19T15:08:23;83.07;;;58.38;;
44000;SDS011;29660;42.892;24.710;2023-11-19T15:13:45;83.65;;;62.60;;
44000;SDS011;29660;42.892;24.710;2023-11-19T15:19:08;81.68;;;59.92;;
44000;SDS011;29660;42.892;24.710;2023-11-19T15:24:30;125.47;;;95.40;;
44000;SDS011;29660;42.892;24.710;2023-11-19T15:29:52;128.60;;;98.13;;
44000;SDS011;29660;42.892;24.710;2023-11-19T15:35:14;146.15;;;112.47;;
44000;SDS011;29660;42.892;24.710;2023-11-19T15:40:36;99.03;;;69.32;;
44000;SDS011;29660;42.892;24.710;2023-11-19T15:46:05;103.95;;;79.65;;
44000;SDS011;29660;42.892;24.710;2023-11-19T15:51:28;140.32;;;104.53;;
44000;SDS011;29660;42.892;24.710;2023-11-19T15:56:50;214.93;;;159.65;;
44000;SDS011;29660;42.892;24.710;2023-11-19T16:02:12;117.00;;;87.65;;
44000;SDS011;29660;42.892;24.710;2023-11-19T16:07:35;102.82;;;74.63;;
44000;SDS011;29660;42.892;24.710;2023-11-19T16:12:57;114.78;;;86.30;;
44000;SDS011;29660;42.892;24.710;2023-11-19T16:18:19;113.22;;;79.03;;
44000;SDS011;29660;42.892;24.710;2023-11-19T16:23:41;106.60;;;79.18;;
44000;SDS011;29660;42.892;24.710;2023-11-19T16:29:04;109.57;;;80.38;;
44000;SDS011;29660;42.892;24.710;2023-11-19T16:34:27;126.63;;;88.03;;
44000;SDS011;29660;42.892;24.710;2023-11-19T16:39:49;147.63;;;100.03;;
44000;SDS011;29660;42.892;24.710;2023-11-19T16:45:11;93.50;;;65.38;;
44000;SDS011;29660;42.892;24.710;2023-11-19T16:50:35;117.50;;;81.00;;
44000;SDS011;29660;42.892;24.710;2023-11-19T16:55:59;107.10;;;77.35;;
44000;SDS011;29660;42.892;24.710;2023-11-19T17:01:21;86.13;;;58.00;;
44000;SDS011;29660;42.892;24.710;2023-11-19T17:06:43;90.07;;;60.78;;
44000;SDS011;29660;42.892;24.710;2023-11-19T17:12:06;88.40;;;66.10;;
44000;SDS011;29660;42.892;24.710;2023-11-19T17:17:29;174.15;;;120.68;;
44000;SDS011;29660;42.892;24.710;2023-11-19T17:22:55;133.30;;;95.72;;
44000;SDS011;29660;42.892;24.710;2023-11-19T17:28:18;77.95;;;56.80;;
44000;SDS011;29660;42.892;24.710;2023-11-19T17:33:40;129.75;;;93.30;;
44000;SDS011;29660;42.892;24.710;2023-11-19T17:39:02;78.22;;;60.70;;
44000;SDS011;29660;42.892;24.710;2023-11-19T17:44:25;289.95;;;183.20;;
44000;SDS011;29660;42.892;24.710;2023-11-19T17:49:50;179.40;;;125.18;;
44000;SDS011;29660;42.892;24.710;2023-11-19T17:55:12;255.30;;;170.57;;
44000;SDS011;29660;42.892;24.710;2023-11-19T18:00:35;184.25;;;131.70;;
44000;SDS011;29660;42.892;24.710;2023-11-19T18:05:57;170.50;;;122.53;;
44000;SDS011;29660;42.892;24.710;2023-11-19T18:11:19;163.82;;;114.38;;
44000;SDS011;29660;42.892;24.710;2023-11-19T18:16:43;279.02;;;209.80;;
44000;SDS011;29660;42.892;24.710;2023-11-19T18:22:06;173.80;;;125.85;;
44000;SDS011;29660;42.892;24.710;2023-11-19T18:27:29;175.48;;;124.43;;
44000;SDS011;29660;42.892;24.710;2023-11-19T18:32:51;197.80;;;136.50;;
44000;SDS011;29660;42.892;24.710;2023-11-19T18:38:13;151.02;;;105.88;;
44000;SDS011;29660;42.892;24.710;2023-11-19T18:43:36;220.07;;;144.93;;
44000;SDS011;29660;42.892;24.710;2023-11-19T18:48:58;184.68;;;126.47;;
44000;SDS011;29660;42.892;24.710;2023-11-19T18:54:22;155.65;;;105.47;;
44000;SDS011;29660;42.892;24.710;2023-11-19T18:59:44;162.10;;;111.45;;
44000;SDS011;29660;42.892;24.710;2023-11-19T19:05:06;134.70;;;95.22;;
44000;SDS011;29660;42.892;24.710;2023-11-19T19:10:29;132.93;;;97.75;;
44000;SDS011;29660;42.892;24.710;2023-11-19T19:15:51;74.10;;;54.72;;
44000;SDS011;29660;42.892;24.710;2023-11-19T19:21:14;80.07;;;53.72;;
44000;SDS011;29660;42.892;24.710;2023-11-19T19:26:36;85.35;;;59.72;;
44000;SDS011;29660;42.892;24.710;2023-11-19T19:31:58;88.70;;;58.97;;
44000;SDS011;29660;42.892;24.710;2023-11-19T19:37:22;162.38;;;101.63;;
44000;SDS011;29660;42.892;24.710;2023-11-19T19:42:45;118.18;;;76.45;;
44000;SDS011;29660;42.892;24.710;2023-11-19T19:48:07;118.53;;;78.85;;
44000;SDS011;29660;42.892;24.710;2023-11-19T19:53:29;132.82;;;90.68;;
44000;SDS011;29660;42.892;24.710;2023-11-19T19:58:51;62.85;;;45.97;;
44000;SDS011;29660;42.892;24.710;2023-11-19T20:04:13;64.32;;;44.28;;
44000;SDS011;29660;42.892;24.710;2023-11-19T20:09:36;84.72;;;54.92;;
44000;SDS011;29660;42.892;24.710;2023-11-19T20:15:00;85.03;;;55.53;;
44000;SDS011;29660;42.892;24.710;2023-11-19T20:20:23;100.78;;;67.32;;
44000;SDS011;29660;42.892;24.710;2023-11-19T20:25:45;93.88;;;61.00;;
44000;SDS011;29660;42.892;24.710;2023-11-19T20:31:07;82.65;;;54.92;;
44000;SDS011;29660;42.892;24.710;2023-11-19T20:36:29;91.55;;;60.38;;
44000;SDS011;29660;42.892;24.710;2023-11-19T20:41:52;156.80;;;84.95;;
44000;SDS011;29660;42.892;24.710;2023-11-19T20:47:15;116.13;;;66.47;;
44000;SDS011;29660;42.892;24.710;2023-11-19T20:52:38;79.70;;;44.45;;
44000;SDS011;29660;42.892;24.710;2023-11-19T20:58:00;54.63;;;36.33;;
44000;SDS011;29660;42.892;24.710;2023-11-19T21:03:22;91.68;;;58.55;;
44000;SDS011;29660;42.892;24.710;2023-11-19T21:08:46;112.03;;;74.10;;
44000;SDS011;29660;42.892;24.710;2023-11-19T21:14:08;101.50;;;66.15;;
44000;SDS011;29660;42.892;24.710;2023-11-19T21:19:31;87.90;;;59.13;;
44000;SDS011;29660;42.892;24.710;2023-11-19T21:24:56;81.05;;;55.05;;
44000;SDS011;29660;42.892;24.710;2023-11-19T21:30:18;108.30;;;69.40;;
44000;SDS011;29660;42.892;24.710;2023-11-19T21:35:41;76.90;;;49.13;;
44000;SDS011;29660;42.892;24.710;2023-11-19T21:41:03;69.55;;;47.85;;
44000;SDS011;29660;42.892;24.710;2023-11-19T21:46:26;53.55;;;36.13;;
44000;SDS011;29660;42.892;24.710;2023-11-19T21:51:48;63.33;;;42.35;;
44000;SDS011;29660;42.892;24.710;2023-11-19T21:57:11;48.90;;;34.15;;
44000;SDS011;29660;42.892;24.710;2023-11-19T22:02:34;30.42;;;22.13;;
44000;SDS011;29660;42.892;24.710;2023-11-19T22:07:56;49.65;;;32.38;;
44000;SDS011;29660;42.892;24.710;2023-11-19T22:13:38;43.97;;;30.90;;
44000;SDS011;29660;42.892;24.710;2023-11-19T22:19:00;48.78;;;34.85;;
44000;SDS011;29660;42.892;24.710;2023-11-19T22:24:22;44.30;;;31.98;;
44000;SDS011;29660;42.892;24.710;2023-11-19T22:29:45;78.43;;;54.78;;
44000;SDS011;29660;42.892;24.710;2023-11-19T22:35:09;67.47;;;46.80;;
44000;SDS011;29660;42.892;24.710;2023-11-19T22:40:32;159.27;;;91.57;;
44000;SDS011;29660;42.892;24.710;2023-11-19T22:45:54;89.75;;;55.75;;
44000;SDS011;29660;42.892;24.710;2023-11-19T22:51:16;71.95;;;46.20;;
44000;SDS011;29660;42.892;24.710;2023-11-19T22:56:38;58.53;;;37.85;;
44000;SDS011;29660;42.892;24.710;2023-11-19T23:02:00;56.70;;;35.78;;
44000;SDS011;29660;42.892;24.710;2023-11-19T23:07:22;66.43;;;42.72;;
44000;SDS011;29660;42.892;24.710;2023-11-19T23:12:45;60.42;;;38.03;;
44000;SDS011;29660;42.892;24.710;2023-11-19T23:18:07;83.00;;;46.90;;
44000;SDS011;29660;42.892;24.710;2023-11-19T23:23:30;51.92;;;33.22;;
44000;SDS011;29660;42.892;24.710;2023-11-19T23:28:52;41.33;;;25.75;;
44000;SDS011;29660;42.892;24.710;2023-11-19T23:34:21;41.45;;;26.35;;
44000;SDS011;29660;42.892;24.710;2023-11-19T23:40:04;41.53;;;28.33;;
44000;SDS011;29660;42.892;24.710;2023-11-19T23:45:27;33.90;;;22.10;;
44000;SDS011;29660;42.892;24.710;2023-11-19T23:50:50;40.83;;;26.15;;
44000;SDS011;29660;42.892;24.710;2023-11-19T23:56:15;38.30;;;24.60;;
